TimeCDT,TemperatureF,Dew PointF,Humidity,Sea Level PressureIn,VisibilityMPH,Wind Direction,Wind SpeedMPH,Gust SpeedMPH,PrecipitationIn,Events,Conditions,WindDirDegrees,DateUTC
12:15 AM,32.0,30.2,93,30.07,10.0,SSW,9.2,-,N/A,,Clear,210,2012-10-08 05:15:00
12:35 AM,32.0,30.2,93,30.07,10.0,SW,8.1,-,N/A,,Clear,220,2012-10-08 05:35:00
12:55 AM,32.0,32.0,100,30.06,10.0,WSW,8.1,-,N/A,,Clear,240,2012-10-08 05:55:00
1:15 AM,32.0,32.0,100,30.06,10.0,WSW,5.8,-,N/A,,Clear,240,2012-10-08 06:15:00
1:35 AM,32.0,32.0,100,30.06,10.0,WSW,6.9,-,N/A,,Clear,250,2012-10-08 06:35:00
1:55 AM,32.0,32.0,100,30.06,10.0,WSW,6.9,-,N/A,,Clear,240,2012-10-08 06:55:00
2:15 AM,32.0,32.0,100,30.06,10.0,WSW,5.8,-,N/A,,Clear,240,2012-10-08 07:15:00
2:35 AM,32.0,32.0,100,30.06,10.0,WSW,6.9,-,N/A,,Clear,240,2012-10-08 07:35:00
2:55 AM,32.0,32.0,100,30.05,10.0,WSW,5.8,-,N/A,,Clear,240,2012-10-08 07:55:00
3:15 AM,32.0,32.0,100,30.04,10.0,WSW,6.9,-,N/A,,Clear,240,2012-10-08 08:15:00
3:35 AM,30.2,30.2,100,30.03,10.0,SW,5.8,-,N/A,,Clear,230,2012-10-08 08:35:00
3:55 AM,32.0,30.2,93,30.03,10.0,WSW,5.8,-,N/A,,Clear,240,2012-10-08 08:55:00
4:15 AM,30.2,30.2,100,30.02,10.0,WSW,5.8,-,N/A,,Clear,240,2012-10-08 09:15:00
4:55 AM,30.2,30.2,100,30.01,10.0,SW,6.9,-,N/A,,Clear,230,2012-10-08 09:55:00
5:15 AM,30.2,30.2,100,30.01,10.0,WSW,8.1,-,N/A,,Clear,240,2012-10-08 10:15:00
5:35 AM,32.0,32.0,100,30.00,10.0,WSW,8.1,-,N/A,,Clear,240,2012-10-08 10:35:00
5:55 AM,32.0,32.0,100,29.99,10.0,WSW,9.2,-,N/A,,Clear,250,2012-10-08 10:55:00
6:15 AM,33.8,32.0,93,29.98,10.0,WSW,9.2,-,N/A,,Clear,250,2012-10-08 11:15:00
6:35 AM,35.6,32.0,87,29.99,10.0,WSW,11.5,-,N/A,,Clear,250,2012-10-08 11:35:00
6:55 AM,35.6,32.0,87,29.98,10.0,WSW,11.5,-,N/A,,Clear,250,2012-10-08 11:55:00
7:15 AM,33.8,32.0,93,29.98,10.0,WSW,8.1,-,N/A,,Clear,240,2012-10-08 12:15:00
7:35 AM,33.8,32.0,93,29.98,10.0,WSW,8.1,-,N/A,,Clear,250,2012-10-08 12:35:00
7:55 AM,33.8,32.0,93,29.98,10.0,WSW,8.1,-,N/A,,Clear,240,2012-10-08 12:55:00
8:15 AM,35.6,32.0,87,29.98,10.0,WSW,8.1,-,N/A,,Clear,240,2012-10-08 13:15:00
8:35 AM,35.6,33.8,93,29.98,10.0,WSW,9.2,-,N/A,,Clear,240,2012-10-08 13:35:00
8:55 AM,37.4,33.8,87,29.99,10.0,WSW,8.1,-,N/A,,Clear,240,2012-10-08 13:55:00
9:15 AM,41.0,35.6,81,29.99,10.0,SW,8.1,-,N/A,,Clear,230,2012-10-08 14:15:00
9:55 AM,50.0,35.6,58,29.99,10.0,WSW,13.8,-,N/A,,Clear,250,2012-10-08 14:55:00
10:15 AM,51.8,35.6,54,29.99,10.0,WSW,15.0,-,N/A,,Clear,240,2012-10-08 15:15:00
10:35 AM,53.6,37.4,54,29.99,10.0,WSW,12.7,-,N/A,,Clear,250,2012-10-08 15:35:00
10:55 AM,59.0,35.6,42,29.98,10.0,WSW,17.3,-,N/A,,Clear,240,2012-10-08 15:55:00
11:15 AM,60.8,33.8,36,29.98,10.0,WSW,18.4,-,N/A,,Clear,240,2012-10-08 16:15:00
11:35 AM,62.6,33.8,34,29.97,10.0,WSW,13.8,21.9,N/A,,Clear,250,2012-10-08 16:35:00
11:55 AM,64.4,33.8,32,29.96,10.0,WSW,13.8,19.6,N/A,,Clear,240,2012-10-08 16:55:00
12:15 PM,66.2,33.8,30,29.96,10.0,WSW,15.0,-,N/A,,Clear,240,2012-10-08 17:15:00
12:35 PM,68.0,32.0,26,29.95,10.0,WSW,12.7,18.4,N/A,,Clear,240,2012-10-08 17:35:00
12:55 PM,68.0,32.0,26,29.93,10.0,WSW,13.8,17.3,N/A,,Clear,240,2012-10-08 17:55:00
1:15 PM,69.8,30.2,23,29.93,10.0,WSW,10.4,19.6,N/A,,Clear,240,2012-10-08 18:15:00
1:35 PM,69.8,30.2,23,29.91,10.0,WSW,13.8,19.6,N/A,,Clear,250,2012-10-08 18:35:00
1:55 PM,71.6,32.0,23,29.90,10.0,WSW,12.7,17.3,N/A,,Clear,250,2012-10-08 18:55:00
2:15 PM,71.6,30.2,22,29.89,10.0,WSW,10.4,16.1,N/A,,Clear,240,2012-10-08 19:15:00
2:35 PM,71.6,30.2,22,29.88,10.0,SW,10.4,18.4,N/A,,Clear,230,2012-10-08 19:35:00
3:15 PM,71.6,30.2,22,29.87,10.0,WSW,11.5,17.3,N/A,,Clear,240,2012-10-08 20:15:00
3:35 PM,73.4,30.2,20,29.86,10.0,WSW,12.7,-,N/A,,Clear,250,2012-10-08 20:35:00
3:55 PM,73.4,30.2,20,29.86,10.0,Calm,Calm,-,N/A,,Clear,0,2012-10-08 20:55:00
4:15 PM,73.4,30.2,20,29.85,10.0,SW,6.9,10.4,N/A,,Clear,230,2012-10-08 21:15:00
4:35 PM,73.4,32.0,22,29.85,10.0,SSW,9.2,-,N/A,,Clear,210,2012-10-08 21:35:00
4:55 PM,73.4,30.2,20,29.84,10.0,SSW,10.4,-,N/A,,Clear,210,2012-10-08 21:55:00
5:15 PM,73.4,30.2,20,29.84,10.0,SW,6.9,-,N/A,,Clear,230,2012-10-08 22:15:00
5:35 PM,73.4,30.2,20,29.84,10.0,WSW,5.8,-,N/A,,Clear,250,2012-10-08 22:35:00
5:55 PM,71.6,30.2,22,29.84,10.0,South,6.9,-,N/A,,Clear,170,2012-10-08 22:55:00
6:15 PM,71.6,30.2,22,29.84,10.0,South,5.8,-,N/A,,Clear,190,2012-10-08 23:15:00
6:35 PM,69.8,32.0,25,29.84,10.0,South,4.6,-,N/A,,Clear,190,2012-10-08 23:35:00
6:55 PM,68.0,32.0,26,29.84,10.0,South,4.6,-,N/A,,Clear,170,2012-10-08 23:55:00
7:15 PM,64.4,32.0,30,29.84,10.0,SSE,6.9,-,N/A,,Clear,160,2012-10-09 00:15:00
7:35 PM,59.0,33.8,39,29.84,10.0,SSE,9.2,-,N/A,,Clear,150,2012-10-09 00:35:00
7:55 PM,59.0,33.8,39,29.84,10.0,South,9.2,-,N/A,,Clear,170,2012-10-09 00:55:00
8:15 PM,60.8,33.8,36,29.84,10.0,South,11.5,-,N/A,,Clear,170,2012-10-09 01:15:00
8:35 PM,60.8,32.0,34,29.84,10.0,South,11.5,-,N/A,,Clear,170,2012-10-09 01:35:00
9:15 PM,57.2,33.8,41,29.85,10.0,South,11.5,-,N/A,,Clear,170,2012-10-09 02:15:00
9:35 PM,57.2,35.6,44,29.85,10.0,South,12.7,-,N/A,,Clear,170,2012-10-09 02:35:00
9:55 PM,57.2,35.6,44,29.85,10.0,South,13.8,18.4,N/A,,Clear,180,2012-10-09 02:55:00
10:15 PM,55.4,37.4,51,29.85,10.0,SSW,9.2,-,N/A,,Clear,200,2012-10-09 03:15:00
10:35 PM,51.8,37.4,58,29.85,10.0,SSW,6.9,-,N/A,,Clear,210,2012-10-09 03:35:00
10:55 PM,50.0,35.6,58,29.85,10.0,SSW,8.1,-,N/A,,Clear,200,2012-10-09 03:55:00
11:15 PM,51.8,37.4,58,29.85,10.0,South,9.2,-,N/A,,Clear,190,2012-10-09 04:15:00
11:35 PM,48.2,37.4,66,29.85,10.0,SSW,6.9,-,N/A,,Clear,210,2012-10-09 04:35:00
11:55 PM,44.6,35.6,71,29.85,10.0,SW,6.9,-,N/A,,Clear,220,2012-10-09 04:55:00